sensor_id;sensor_type;location;lat;lon;timestamp;P1;durP1;ratioP1;P2;durP2;ratioP2
53044;SDS011;38930;52.766;6.884;2022-10-23T00:01:55;20.85;;;12.45;;
53044;SDS011;38930;52.766;6.884;2022-10-23T00:04:21;18.60;;;12.40;;
53044;SDS011;38930;52.766;6.884;2022-10-23T00:06:51;23.35;;;13.10;;
53044;SDS011;38930;52.766;6.884;2022-10-23T00:09:17;27.45;;;14.68;;
53044;SDS011;38930;52.766;6.884;2022-10-23T00:11:45;23.58;;;13.23;;
53044;SDS011;38930;52.766;6.884;2022-10-23T00:14:12;29.83;;;13.60;;
53044;SDS011;38930;52.766;6.884;2022-10-23T00:19:05;27.15;;;13.43;;
53044;SDS011;38930;52.766;6.884;2022-10-23T00:21:30;25.48;;;14.20;;
53044;SDS011;38930;52.766;6.884;2022-10-23T00:23:56;25.73;;;13.18;;
53044;SDS011;38930;52.766;6.884;2022-10-23T00:26:22;23.92;;;13.30;;
53044;SDS011;38930;52.766;6.884;2022-10-23T00:28:49;21.58;;;13.70;;
53044;SDS011;38930;52.766;6.884;2022-10-23T00:31:16;22.85;;;14.82;;
53044;SDS011;38930;52.766;6.884;2022-10-23T00:33:43;27.05;;;14.88;;
53044;SDS011;38930;52.766;6.884;2022-10-23T00:36:11;25.83;;;14.55;;
53044;SDS011;38930;52.766;6.884;2022-10-23T00:38:38;26.50;;;12.95;;
53044;SDS011;38930;52.766;6.884;2022-10-23T00:41:05;19.70;;;13.88;;
53044;SDS011;38930;52.766;6.884;2022-10-23T00:43:32;25.38;;;14.07;;
53044;SDS011;38930;52.766;6.884;2022-10-23T00:45:58;20.52;;;13.45;;
53044;SDS011;38930;52.766;6.884;2022-10-23T00:48:24;21.05;;;13.27;;
53044;SDS011;38930;52.766;6.884;2022-10-23T00:50:51;26.63;;;15.05;;
53044;SDS011;38930;52.766;6.884;2022-10-23T00:53:18;22.40;;;13.55;;
53044;SDS011;38930;52.766;6.884;2022-10-23T00:55:45;24.45;;;13.43;;
53044;SDS011;38930;52.766;6.884;2022-10-23T00:58:13;25.92;;;14.52;;
53044;SDS011;38930;52.766;6.884;2022-10-23T01:00:50;30.17;;;14.23;;
53044;SDS011;38930;52.766;6.884;2022-10-23T01:08:19;27.08;;;13.38;;
53044;SDS011;38930;52.766;6.884;2022-10-23T01:10:56;52.25;;;14.57;;
53044;SDS011;38930;52.766;6.884;2022-10-23T01:16:02;23.55;;;13.27;;
53044;SDS011;38930;52.766;6.884;2022-10-23T01:18:38;29.85;;;12.90;;
53044;SDS011;38930;52.766;6.884;2022-10-23T01:21:17;21.27;;;13.43;;
53044;SDS011;38930;52.766;6.884;2022-10-23T01:26:35;20.52;;;13.13;;
53044;SDS011;38930;52.766;6.884;2022-10-23T01:29:18;34.72;;;13.40;;
53044;SDS011;38930;52.766;6.884;2022-10-23T01:32:05;22.40;;;12.98;;
53044;SDS011;38930;52.766;6.884;2022-10-23T01:34:41;19.15;;;12.13;;
53044;SDS011;38930;52.766;6.884;2022-10-23T01:37:18;22.35;;;12.82;;
53044;SDS011;38930;52.766;6.884;2022-10-23T01:39:50;17.98;;;12.88;;
53044;SDS011;38930;52.766;6.884;2022-10-23T01:42:20;21.73;;;11.90;;
53044;SDS011;38930;52.766;6.884;2022-10-23T01:44:50;27.75;;;12.73;;
53044;SDS011;38930;52.766;6.884;2022-10-23T01:47:27;29.80;;;12.60;;
53044;SDS011;38930;52.766;6.884;2022-10-23T01:49:55;19.63;;;13.18;;
53044;SDS011;38930;52.766;6.884;2022-10-23T01:52:21;23.45;;;12.18;;
53044;SDS011;38930;52.766;6.884;2022-10-23T01:54:47;29.92;;;11.90;;
53044;SDS011;38930;52.766;6.884;2022-10-23T01:57:15;18.75;;;12.82;;
53044;SDS011;38930;52.766;6.884;2022-10-23T01:59:52;24.63;;;12.90;;
53044;SDS011;38930;52.766;6.884;2022-10-23T02:02:23;25.23;;;12.65;;
53044;SDS011;38930;52.766;6.884;2022-10-23T02:05:05;22.65;;;11.57;;
53044;SDS011;38930;52.766;6.884;2022-10-23T02:07:41;21.55;;;12.48;;
53044;SDS011;38930;52.766;6.884;2022-10-23T02:10:07;23.73;;;12.13;;
53044;SDS011;38930;52.766;6.884;2022-10-23T02:12:39;18.20;;;12.00;;
53044;SDS011;38930;52.766;6.884;2022-10-23T02:20:28;30.35;;;12.27;;
53044;SDS011;38930;52.766;6.884;2022-10-23T02:23:07;24.38;;;12.63;;
53044;SDS011;38930;52.766;6.884;2022-10-23T02:25:37;56.08;;;14.02;;
53044;SDS011;38930;52.766;6.884;2022-10-23T02:28:12;28.67;;;11.32;;
53044;SDS011;38930;52.766;6.884;2022-10-23T02:30:43;21.70;;;12.27;;
53044;SDS011;38930;52.766;6.884;2022-10-23T02:33:13;24.23;;;12.77;;
53044;SDS011;38930;52.766;6.884;2022-10-23T02:35:39;24.40;;;11.88;;
53044;SDS011;38930;52.766;6.884;2022-10-23T02:40:57;28.50;;;12.38;;
53044;SDS011;38930;52.766;6.884;2022-10-23T02:43:35;20.55;;;11.85;;
53044;SDS011;38930;52.766;6.884;2022-10-23T02:46:08;27.27;;;12.60;;
53044;SDS011;38930;52.766;6.884;2022-10-23T02:48:42;83.22;;;17.08;;
53044;SDS011;38930;52.766;6.884;2022-10-23T02:54:20;69.18;;;15.60;;
53044;SDS011;38930;52.766;6.884;2022-10-23T02:56:52;33.42;;;13.90;;
53044;SDS011;38930;52.766;6.884;2022-10-23T02:59:36;51.35;;;14.02;;
53044;SDS011;38930;52.766;6.884;2022-10-23T03:04:43;20.00;;;13.18;;
53044;SDS011;38930;52.766;6.884;2022-10-23T03:07:11;44.15;;;13.70;;
53044;SDS011;38930;52.766;6.884;2022-10-23T03:09:38;27.67;;;13.65;;
53044;SDS011;38930;52.766;6.884;2022-10-23T03:12:04;20.85;;;12.85;;
53044;SDS011;38930;52.766;6.884;2022-10-23T03:14:29;22.42;;;12.27;;
53044;SDS011;38930;52.766;6.884;2022-10-23T03:16:55;46.85;;;13.50;;
53044;SDS011;38930;52.766;6.884;2022-10-23T03:19:20;39.03;;;14.10;;
53044;SDS011;38930;52.766;6.884;2022-10-23T03:21:46;24.08;;;12.20;;
53044;SDS011;38930;52.766;6.884;2022-10-23T03:24:12;21.27;;;12.65;;
53044;SDS011;38930;52.766;6.884;2022-10-23T03:26:37;21.52;;;13.00;;
53044;SDS011;38930;52.766;6.884;2022-10-23T03:29:03;40.30;;;13.15;;
53044;SDS011;38930;52.766;6.884;2022-10-23T03:31:28;21.08;;;13.43;;
53044;SDS011;38930;52.766;6.884;2022-10-23T03:33:54;40.20;;;13.15;;
53044;SDS011;38930;52.766;6.884;2022-10-23T03:36:20;21.58;;;12.80;;
53044;SDS011;38930;52.766;6.884;2022-10-23T03:38:45;19.45;;;11.75;;
53044;SDS011;38930;52.766;6.884;2022-10-23T03:41:11;21.58;;;13.20;;
53044;SDS011;38930;52.766;6.884;2022-10-23T03:43:36;29.63;;;13.43;;
53044;SDS011;38930;52.766;6.884;2022-10-23T03:46:02;22.00;;;13.80;;
53044;SDS011;38930;52.766;6.884;2022-10-23T03:48:33;26.13;;;14.10;;
53044;SDS011;38930;52.766;6.884;2022-10-23T03:51:02;21.23;;;13.00;;
53044;SDS011;38930;52.766;6.884;2022-10-23T03:53:30;21.30;;;13.70;;
53044;SDS011;38930;52.766;6.884;2022-10-23T03:55:56;26.10;;;15.25;;
53044;SDS011;38930;52.766;6.884;2022-10-23T03:58:21;19.73;;;13.30;;
53044;SDS011;38930;52.766;6.884;2022-10-23T04:00:47;21.42;;;12.93;;
53044;SDS011;38930;52.766;6.884;2022-10-23T04:03:12;24.67;;;13.15;;
53044;SDS011;38930;52.766;6.884;2022-10-23T04:05:39;23.90;;;12.80;;
53044;SDS011;38930;52.766;6.884;2022-10-23T04:08:06;31.83;;;13.50;;
53044;SDS011;38930;52.766;6.884;2022-10-23T04:10:31;21.08;;;12.65;;
53044;SDS011;38930;52.766;6.884;2022-10-23T04:12:57;22.77;;;12.55;;
53044;SDS011;38930;52.766;6.884;2022-10-23T04:15:22;19.05;;;12.98;;
53044;SDS011;38930;52.766;6.884;2022-10-23T04:17:48;25.25;;;13.50;;
53044;SDS011;38930;52.766;6.884;2022-10-23T04:20:13;17.65;;;12.70;;
53044;SDS011;38930;52.766;6.884;2022-10-23T04:22:39;23.55;;;14.10;;
53044;SDS011;38930;52.766;6.884;2022-10-23T04:25:05;19.40;;;12.35;;
53044;SDS011;38930;52.766;6.884;2022-10-23T04:27:30;18.20;;;12.63;;
53044;SDS011;38930;52.766;6.884;2022-10-23T04:29:58;22.42;;;13.20;;
53044;SDS011;38930;52.766;6.884;2022-10-23T04:32:24;21.67;;;12.75;;
53044;SDS011;38930;52.766;6.884;2022-10-23T04:34:49;19.45;;;12.77;;
53044;SDS011;38930;52.766;6.884;2022-10-23T04:37:15;23.45;;;13.35;;
53044;SDS011;38930;52.766;6.884;2022-10-23T04:39:40;23.40;;;13.63;;
53044;SDS011;38930;52.766;6.884;2022-10-23T04:42:06;22.70;;;13.02;;
53044;SDS011;38930;52.766;6.884;2022-10-23T04:44:32;25.05;;;13.45;;
53044;SDS011;38930;52.766;6.884;2022-10-23T04:46:57;24.70;;;13.68;;
53044;SDS011;38930;52.766;6.884;2022-10-23T04:49:23;27.05;;;13.70;;
53044;SDS011;38930;52.766;6.884;2022-10-23T04:51:48;28.98;;;13.43;;
53044;SDS011;38930;52.766;6.884;2022-10-23T04:54:14;21.90;;;13.60;;
53044;SDS011;38930;52.766;6.884;2022-10-23T04:56:40;26.50;;;12.57;;
53044;SDS011;38930;52.766;6.884;2022-10-23T04:59:05;22.77;;;12.68;;
53044;SDS011;38930;52.766;6.884;2022-10-23T05:01:31;25.23;;;13.73;;
53044;SDS011;38930;52.766;6.884;2022-10-23T05:03:56;20.80;;;12.27;;
53044;SDS011;38930;52.766;6.884;2022-10-23T05:06:22;22.17;;;12.45;;
53044;SDS011;38930;52.766;6.884;2022-10-23T05:08:47;28.45;;;13.70;;
53044;SDS011;38930;52.766;6.884;2022-10-23T05:11:13;27.75;;;13.55;;
53044;SDS011;38930;52.766;6.884;2022-10-23T05:13:38;21.60;;;12.75;;
53044;SDS011;38930;52.766;6.884;2022-10-23T05:16:04;25.30;;;13.48;;
53044;SDS011;38930;52.766;6.884;2022-10-23T05:18:31;23.05;;;12.65;;
53044;SDS011;38930;52.766;6.884;2022-10-23T05:21:05;20.75;;;12.27;;
53044;SDS011;38930;52.766;6.884;2022-10-23T05:23:37;29.85;;;13.80;;
53044;SDS011;38930;52.766;6.884;2022-10-23T05:26:06;21.98;;;13.25;;
53044;SDS011;38930;52.766;6.884;2022-10-23T05:28:32;26.90;;;13.90;;
53044;SDS011;38930;52.766;6.884;2022-10-23T05:30:57;22.88;;;13.05;;
53044;SDS011;38930;52.766;6.884;2022-10-23T05:35:50;24.05;;;11.95;;
53044;SDS011;38930;52.766;6.884;2022-10-23T05:38:16;21.63;;;12.40;;
53044;SDS011;38930;52.766;6.884;2022-10-23T05:40:42;26.80;;;12.95;;
53044;SDS011;38930;52.766;6.884;2022-10-23T05:43:07;22.13;;;11.85;;
53044;SDS011;38930;52.766;6.884;2022-10-23T05:45:33;25.20;;;12.10;;
53044;SDS011;38930;52.766;6.884;2022-10-23T05:47:58;22.13;;;12.18;;
53044;SDS011;38930;52.766;6.884;2022-10-23T05:50:24;20.48;;;12.30;;
53044;SDS011;38930;52.766;6.884;2022-10-23T05:52:50;20.55;;;12.82;;
53044;SDS011;38930;52.766;6.884;2022-10-23T05:55:16;25.80;;;12.02;;
53044;SDS011;38930;52.766;6.884;2022-10-23T05:57:41;28.35;;;12.30;;
53044;SDS011;38930;52.766;6.884;2022-10-23T06:00:07;19.30;;;11.82;;
53044;SDS011;38930;52.766;6.884;2022-10-23T06:02:33;18.02;;;11.85;;
53044;SDS011;38930;52.766;6.884;2022-10-23T06:04:59;23.08;;;12.48;;
53044;SDS011;38930;52.766;6.884;2022-10-23T06:07:25;23.70;;;12.43;;
53044;SDS011;38930;52.766;6.884;2022-10-23T06:12:19;20.15;;;11.27;;
53044;SDS011;38930;52.766;6.884;2022-10-23T06:17:10;22.40;;;11.35;;
53044;SDS011;38930;52.766;6.884;2022-10-23T06:19:36;20.20;;;10.50;;
53044;SDS011;38930;52.766;6.884;2022-10-23T06:22:03;27.25;;;11.40;;
53044;SDS011;38930;52.766;6.884;2022-10-23T06:24:29;24.30;;;12.30;;
53044;SDS011;38930;52.766;6.884;2022-10-23T06:26:54;22.95;;;11.77;;
53044;SDS011;38930;52.766;6.884;2022-10-23T06:29:20;26.13;;;12.20;;
53044;SDS011;38930;52.766;6.884;2022-10-23T06:31:45;23.05;;;11.27;;
53044;SDS011;38930;52.766;6.884;2022-10-23T06:34:11;19.85;;;11.65;;
53044;SDS011;38930;52.766;6.884;2022-10-23T06:36:37;26.63;;;12.00;;
53044;SDS011;38930;52.766;6.884;2022-10-23T06:39:03;20.15;;;11.93;;
53044;SDS011;38930;52.766;6.884;2022-10-23T06:41:29;27.35;;;12.25;;
53044;SDS011;38930;52.766;6.884;2022-10-23T06:43:54;29.65;;;12.90;;
53044;SDS011;38930;52.766;6.884;2022-10-23T06:46:20;26.30;;;12.15;;
53044;SDS011;38930;52.766;6.884;2022-10-23T06:48:46;21.98;;;11.77;;
53044;SDS011;38930;52.766;6.884;2022-10-23T06:51:13;21.23;;;12.07;;
53044;SDS011;38930;52.766;6.884;2022-10-23T06:53:41;23.13;;;12.63;;
53044;SDS011;38930;52.766;6.884;2022-10-23T06:56:08;19.30;;;11.35;;
53044;SDS011;38930;52.766;6.884;2022-10-23T06:58:35;24.48;;;12.43;;
53044;SDS011;38930;52.766;6.884;2022-10-23T07:01:03;22.00;;;12.02;;
53044;SDS011;38930;52.766;6.884;2022-10-23T07:03:30;27.42;;;11.93;;
53044;SDS011;38930;52.766;6.884;2022-10-23T07:05:58;22.25;;;12.82;;
53044;SDS011;38930;52.766;6.884;2022-10-23T07:08:25;17.63;;;11.15;;
53044;SDS011;38930;52.766;6.884;2022-10-23T07:10:51;20.67;;;11.68;;
53044;SDS011;38930;52.766;6.884;2022-10-23T07:13:16;21.27;;;11.45;;
53044;SDS011;38930;52.766;6.884;2022-10-23T07:15:42;20.50;;;11.48;;
53044;SDS011;38930;52.766;6.884;2022-10-23T07:18:08;20.60;;;11.45;;
53044;SDS011;38930;52.766;6.884;2022-10-23T07:20:38;18.80;;;11.65;;
53044;SDS011;38930;52.766;6.884;2022-10-23T07:23:05;19.17;;;10.93;;
53044;SDS011;38930;52.766;6.884;2022-10-23T07:25:31;20.45;;;11.43;;
53044;SDS011;38930;52.766;6.884;2022-10-23T07:27:57;23.20;;;11.70;;
53044;SDS011;38930;52.766;6.884;2022-10-23T07:30:23;22.25;;;11.93;;
53044;SDS011;38930;52.766;6.884;2022-10-23T07:32:48;22.17;;;11.13;;
53044;SDS011;38930;52.766;6.884;2022-10-23T07:35:14;21.58;;;11.23;;
53044;SDS011;38930;52.766;6.884;2022-10-23T07:37:40;20.13;;;11.47;;
53044;SDS011;38930;52.766;6.884;2022-10-23T07:40:06;17.58;;;11.50;;
53044;SDS011;38930;52.766;6.884;2022-10-23T07:42:32;26.17;;;11.82;;
53044;SDS011;38930;52.766;6.884;2022-10-23T07:44:58;22.25;;;11.00;;
53044;SDS011;38930;52.766;6.884;2022-10-23T07:47:24;21.65;;;10.98;;
53044;SDS011;38930;52.766;6.884;2022-10-23T07:49:49;21.55;;;10.65;;
53044;SDS011;38930;52.766;6.884;2022-10-23T07:52:15;19.27;;;11.27;;
53044;SDS011;38930;52.766;6.884;2022-10-23T07:54:41;21.60;;;10.93;;
53044;SDS011;38930;52.766;6.884;2022-10-23T07:57:08;17.10;;;10.13;;
53044;SDS011;38930;52.766;6.884;2022-10-23T07:59:36;22.17;;;10.38;;
53044;SDS011;38930;52.766;6.884;2022-10-23T08:02:02;19.30;;;10.27;;
53044;SDS011;38930;52.766;6.884;2022-10-23T08:04:28;14.23;;;9.60;;
53044;SDS011;38930;52.766;6.884;2022-10-23T08:06:53;18.55;;;10.20;;
53044;SDS011;38930;52.766;6.884;2022-10-23T08:09:20;20.02;;;10.38;;
53044;SDS011;38930;52.766;6.884;2022-10-23T08:11:46;14.57;;;9.50;;
53044;SDS011;38930;52.766;6.884;2022-10-23T08:14:12;20.33;;;10.27;;
53044;SDS011;38930;52.766;6.884;2022-10-23T08:16:38;18.02;;;8.88;;
53044;SDS011;38930;52.766;6.884;2022-10-23T08:19:04;23.60;;;10.55;;
53044;SDS011;38930;52.766;6.884;2022-10-23T08:21:31;23.42;;;9.43;;
53044;SDS011;38930;52.766;6.884;2022-10-23T08:23:58;16.63;;;7.80;;
53044;SDS011;38930;52.766;6.884;2022-10-23T08:26:24;19.58;;;9.32;;
53044;SDS011;38930;52.766;6.884;2022-10-23T08:28:53;13.90;;;8.68;;
53044;SDS011;38930;52.766;6.884;2022-10-23T08:31:20;17.73;;;8.57;;
53044;SDS011;38930;52.766;6.884;2022-10-23T08:33:46;15.93;;;9.10;;
53044;SDS011;38930;52.766;6.884;2022-10-23T08:36:19;14.40;;;8.32;;
53044;SDS011;38930;52.766;6.884;2022-10-23T08:38:50;15.07;;;8.45;;
53044;SDS011;38930;52.766;6.884;2022-10-23T08:44:37;15.63;;;8.55;;
53044;SDS011;38930;52.766;6.884;2022-10-23T08:47:34;21.60;;;9.07;;
53044;SDS011;38930;52.766;6.884;2022-10-23T08:52:21;12.15;;;7.72;;
53044;SDS011;38930;52.766;6.884;2022-10-23T08:55:14;14.55;;;7.82;;
53044;SDS011;38930;52.766;6.884;2022-10-23T08:57:52;13.43;;;7.50;;
53044;SDS011;38930;52.766;6.884;2022-10-23T09:00:19;11.55;;;7.28;;
53044;SDS011;38930;52.766;6.884;2022-10-23T09:02:49;13.20;;;7.55;;
53044;SDS011;38930;52.766;6.884;2022-10-23T09:08:10;9.90;;;7.20;;
53044;SDS011;38930;52.766;6.884;2022-10-23T09:13:52;14.15;;;7.45;;
53044;SDS011;38930;52.766;6.884;2022-10-23T09:16:48;12.18;;;7.65;;
53044;SDS011;38930;52.766;6.884;2022-10-23T09:19:45;14.77;;;6.80;;
53044;SDS011;38930;52.766;6.884;2022-10-23T09:22:11;10.43;;;6.38;;
53044;SDS011;38930;52.766;6.884;2022-10-23T09:24:40;10.90;;;5.90;;
53044;SDS011;38930;52.766;6.884;2022-10-23T09:27:08;17.58;;;6.90;;
53044;SDS011;38930;52.766;6.884;2022-10-23T09:29:45;11.43;;;6.50;;
53044;SDS011;38930;52.766;6.884;2022-10-23T09:32:13;12.13;;;5.82;;
53044;SDS011;38930;52.766;6.884;2022-10-23T09:34:48;12.90;;;6.63;;
53044;SDS011;38930;52.766;6.884;2022-10-23T09:37:29;11.10;;;6.15;;
53044;SDS011;38930;52.766;6.884;2022-10-23T09:40:00;13.20;;;6.38;;
53044;SDS011;38930;52.766;6.884;2022-10-23T09:42:49;10.60;;;6.30;;
53044;SDS011;38930;52.766;6.884;2022-10-23T09:45:24;12.25;;;6.97;;
53044;SDS011;38930;52.766;6.884;2022-10-23T09:48:32;17.15;;;6.35;;
53044;SDS011;38930;52.766;6.884;2022-10-23T09:53:34;11.93;;;5.80;;
53044;SDS011;38930;52.766;6.884;2022-10-23T09:56:06;13.50;;;6.13;;
53044;SDS011;38930;52.766;6.884;2022-10-23T10:01:25;15.00;;;6.07;;
53044;SDS011;38930;52.766;6.884;2022-10-23T10:03:56;10.38;;;6.22;;
53044;SDS011;38930;52.766;6.884;2022-10-23T10:06:27;11.02;;;6.15;;
53044;SDS011;38930;52.766;6.884;2022-10-23T10:08:55;7.65;;;5.40;;
53044;SDS011;38930;52.766;6.884;2022-10-23T10:11:28;12.27;;;6.07;;
53044;SDS011;38930;52.766;6.884;2022-10-23T10:16:39;13.27;;;5.90;;
53044;SDS011;38930;52.766;6.884;2022-10-23T10:22:15;9.75;;;5.78;;
53044;SDS011;38930;52.766;6.884;2022-10-23T10:27:41;19.42;;;8.95;;
53044;SDS011;38930;52.766;6.884;2022-10-23T10:32:47;18.55;;;6.43;;
53044;SDS011;38930;52.766;6.884;2022-10-23T10:35:56;20.25;;;9.15;;
53044;SDS011;38930;52.766;6.884;2022-10-23T10:38:44;23.98;;;14.02;;
53044;SDS011;38930;52.766;6.884;2022-10-23T10:41:33;13.23;;;7.53;;
53044;SDS011;38930;52.766;6.884;2022-10-23T10:54:45;12.82;;;5.43;;
53044;SDS011;38930;52.766;6.884;2022-10-23T10:57:40;11.02;;;4.93;;
53044;SDS011;38930;52.766;6.884;2022-10-23T11:00:13;8.55;;;4.45;;
53044;SDS011;38930;52.766;6.884;2022-10-23T11:02:47;8.07;;;4.45;;
53044;SDS011;38930;52.766;6.884;2022-10-23T11:05:49;11.60;;;4.60;;
53044;SDS011;38930;52.766;6.884;2022-10-23T11:08:18;8.85;;;4.47;;
53044;SDS011;38930;52.766;6.884;2022-10-23T11:11:06;9.23;;;4.28;;
53044;SDS011;38930;52.766;6.884;2022-10-23T11:13:48;8.50;;;4.07;;
53044;SDS011;38930;52.766;6.884;2022-10-23T11:36:18;15.20;;;4.40;;
53044;SDS011;38930;52.766;6.884;2022-10-23T11:38:45;15.03;;;4.50;;
53044;SDS011;38930;52.766;6.884;2022-10-23T11:41:20;8.50;;;3.80;;
53044;SDS011;38930;52.766;6.884;2022-10-23T11:48:46;8.77;;;4.00;;
53044;SDS011;38930;52.766;6.884;2022-10-23T11:51:24;8.60;;;4.30;;
53044;SDS011;38930;52.766;6.884;2022-10-23T11:53:52;10.98;;;4.82;;
53044;SDS011;38930;52.766;6.884;2022-10-23T11:59:49;8.15;;;3.97;;
53044;SDS011;38930;52.766;6.884;2022-10-23T12:05:06;6.15;;;3.83;;
53044;SDS011;38930;52.766;6.884;2022-10-23T12:07:52;8.88;;;4.45;;
53044;SDS011;38930;52.766;6.884;2022-10-23T12:10:22;6.70;;;3.40;;
53044;SDS011;38930;52.766;6.884;2022-10-23T12:13:04;11.50;;;3.95;;
53044;SDS011;38930;52.766;6.884;2022-10-23T12:15:31;6.15;;;3.80;;
53044;SDS011;38930;52.766;6.884;2022-10-23T12:20:55;6.85;;;3.75;;
53044;SDS011;38930;52.766;6.884;2022-10-23T12:28:36;6.47;;;3.30;;
53044;SDS011;38930;52.766;6.884;2022-10-23T12:31:17;5.78;;;3.17;;
53044;SDS011;38930;52.766;6.884;2022-10-23T12:37:02;8.73;;;3.63;;
53044;SDS011;38930;52.766;6.884;2022-10-23T12:39:35;9.80;;;3.42;;
53044;SDS011;38930;52.766;6.884;2022-10-23T12:42:03;12.43;;;3.83;;
53044;SDS011;38930;52.766;6.884;2022-10-23T12:44:30;8.05;;;3.45;;
53044;SDS011;38930;52.766;6.884;2022-10-23T12:46:56;8.53;;;3.73;;
53044;SDS011;38930;52.766;6.884;2022-10-23T12:49:27;5.85;;;3.28;;
53044;SDS011;38930;52.766;6.884;2022-10-23T12:52:03;9.80;;;3.25;;
53044;SDS011;38930;52.766;6.884;2022-10-23T12:54:30;7.03;;;3.38;;
53044;SDS011;38930;52.766;6.884;2022-10-23T12:56:57;6.30;;;3.10;;
53044;SDS011;38930;52.766;6.884;2022-10-23T12:59:24;11.10;;;3.20;;
53044;SDS011;38930;52.766;6.884;2022-10-23T13:02:00;10.00;;;3.30;;
53044;SDS011;38930;52.766;6.884;2022-10-23T13:06:54;7.50;;;3.28;;
53044;SDS011;38930;52.766;6.884;2022-10-23T13:09:23;6.75;;;3.35;;
53044;SDS011;38930;52.766;6.884;2022-10-23T13:12:01;5.63;;;3.20;;
53044;SDS011;38930;52.766;6.884;2022-10-23T13:16:57;7.63;;;3.05;;
53044;SDS011;38930;52.766;6.884;2022-10-23T13:19:24;9.32;;;3.75;;
53044;SDS011;38930;52.766;6.884;2022-10-23T13:24:20;5.10;;;3.38;;
53044;SDS011;38930;52.766;6.884;2022-10-23T13:26:46;8.05;;;3.38;;
53044;SDS011;38930;52.766;6.884;2022-10-23T13:31:46;5.82;;;3.10;;
53044;SDS011;38930;52.766;6.884;2022-10-23T13:36:53;10.35;;;3.55;;
53044;SDS011;38930;52.766;6.884;2022-10-23T13:39:23;6.18;;;3.60;;
53044;SDS011;38930;52.766;6.884;2022-10-23T13:41:50;9.18;;;3.92;;
53044;SDS011;38930;52.766;6.884;2022-10-23T13:44:17;5.82;;;3.33;;
53044;SDS011;38930;52.766;6.884;2022-10-23T13:46:44;5.93;;;3.13;;
53044;SDS011;38930;52.766;6.884;2022-10-23T13:49:12;7.03;;;3.63;;
53044;SDS011;38930;52.766;6.884;2022-10-23T13:51:42;8.32;;;3.28;;
53044;SDS011;38930;52.766;6.884;2022-10-23T13:54:21;10.70;;;3.45;;
53044;SDS011;38930;52.766;6.884;2022-10-23T13:56:52;6.03;;;3.13;;
53044;SDS011;38930;52.766;6.884;2022-10-23T13:59:18;13.18;;;4.32;;
53044;SDS011;38930;52.766;6.884;2022-10-23T14:01:45;7.87;;;3.50;;
53044;SDS011;38930;52.766;6.884;2022-10-23T14:04:12;11.18;;;3.03;;
53044;SDS011;38930;52.766;6.884;2022-10-23T14:06:38;6.85;;;2.90;;
53044;SDS011;38930;52.766;6.884;2022-10-23T14:09:05;6.97;;;3.25;;
53044;SDS011;38930;52.766;6.884;2022-10-23T14:11:31;8.18;;;3.65;;
53044;SDS011;38930;52.766;6.884;2022-10-23T14:13:57;12.15;;;3.28;;
53044;SDS011;38930;52.766;6.884;2022-10-23T14:16:24;9.40;;;3.33;;
53044;SDS011;38930;52.766;6.884;2022-10-23T14:18:50;5.57;;;3.30;;
53044;SDS011;38930;52.766;6.884;2022-10-23T14:21:19;6.80;;;3.63;;
53044;SDS011;38930;52.766;6.884;2022-10-23T14:23:45;7.13;;;3.20;;
53044;SDS011;38930;52.766;6.884;2022-10-23T14:26:13;6.93;;;3.15;;
53044;SDS011;38930;52.766;6.884;2022-10-23T14:28:40;7.75;;;3.38;;
53044;SDS011;38930;52.766;6.884;2022-10-23T14:31:08;4.35;;;2.92;;
53044;SDS011;38930;52.766;6.884;2022-10-23T14:33:38;8.50;;;3.35;;
53044;SDS011;38930;52.766;6.884;2022-10-23T14:36:04;6.22;;;3.30;;
53044;SDS011;38930;52.766;6.884;2022-10-23T14:38:30;6.97;;;3.70;;
53044;SDS011;38930;52.766;6.884;2022-10-23T14:40:56;7.80;;;3.17;;
53044;SDS011;38930;52.766;6.884;2022-10-23T14:43:22;8.02;;;3.25;;
53044;SDS011;38930;52.766;6.884;2022-10-23T14:45:48;8.43;;;3.13;;
53044;SDS011;38930;52.766;6.884;2022-10-23T14:48:13;7.07;;;3.40;;
53044;SDS011;38930;52.766;6.884;2022-10-23T14:50:43;9.27;;;3.10;;
53044;SDS011;38930;52.766;6.884;2022-10-23T14:53:11;9.15;;;3.33;;
53044;SDS011;38930;52.766;6.884;2022-10-23T14:55:37;7.70;;;2.93;;
53044;SDS011;38930;52.766;6.884;2022-10-23T14:58:03;11.10;;;3.70;;
53044;SDS011;38930;52.766;6.884;2022-10-23T15:00:29;9.03;;;3.57;;
53044;SDS011;38930;52.766;6.884;2022-10-23T15:02:55;6.77;;;3.40;;
53044;SDS011;38930;52.766;6.884;2022-10-23T15:05:20;9.40;;;3.30;;
53044;SDS011;38930;52.766;6.884;2022-10-23T15:07:46;12.00;;;3.87;;
53044;SDS011;38930;52.766;6.884;2022-10-23T15:10:11;7.57;;;3.20;;
53044;SDS011;38930;52.766;6.884;2022-10-23T15:12:37;5.67;;;3.00;;
53044;SDS011;38930;52.766;6.884;2022-10-23T15:15:04;3.93;;;2.97;;
53044;SDS011;38930;52.766;6.884;2022-10-23T15:17:31;11.63;;;2.90;;
53044;SDS011;38930;52.766;6.884;2022-10-23T15:19:58;6.65;;;3.33;;
53044;SDS011;38930;52.766;6.884;2022-10-23T15:22:24;8.70;;;3.92;;
53044;SDS011;38930;52.766;6.884;2022-10-23T15:24:50;11.60;;;3.77;;
53044;SDS011;38930;52.766;6.884;2022-10-23T15:27:16;33.00;;;21.10;;
53044;SDS011;38930;52.766;6.884;2022-10-23T15:29:42;12.45;;;4.75;;
53044;SDS011;38930;52.766;6.884;2022-10-23T15:32:08;6.50;;;4.80;;
53044;SDS011;38930;52.766;6.884;2022-10-23T15:34:34;7.80;;;3.60;;
53044;SDS011;38930;52.766;6.884;2022-10-23T15:37:02;7.75;;;4.63;;
53044;SDS011;38930;52.766;6.884;2022-10-23T15:41:58;10.80;;;4.03;;
53044;SDS011;38930;52.766;6.884;2022-10-23T15:44:25;6.65;;;3.70;;
53044;SDS011;38930;52.766;6.884;2022-10-23T15:46:52;7.60;;;3.08;;
53044;SDS011;38930;52.766;6.884;2022-10-23T15:49:20;7.15;;;3.20;;
53044;SDS011;38930;52.766;6.884;2022-10-23T15:51:46;8.87;;;3.33;;
53044;SDS011;38930;52.766;6.884;2022-10-23T15:54:12;4.40;;;3.42;;
53044;SDS011;38930;52.766;6.884;2022-10-23T15:56:47;8.27;;;4.30;;
53044;SDS011;38930;52.766;6.884;2022-10-23T15:59:14;12.68;;;6.35;;
53044;SDS011;38930;52.766;6.884;2022-10-23T16:01:40;8.00;;;4.70;;
53044;SDS011;38930;52.766;6.884;2022-10-23T16:04:06;5.53;;;3.47;;
53044;SDS011;38930;52.766;6.884;2022-10-23T16:06:32;10.70;;;5.60;;
53044;SDS011;38930;52.766;6.884;2022-10-23T16:08:58;6.75;;;3.70;;
53044;SDS011;38930;52.766;6.884;2022-10-23T16:11:25;6.23;;;3.23;;
53044;SDS011;38930;52.766;6.884;2022-10-23T16:13:55;10.90;;;6.80;;
53044;SDS011;38930;52.766;6.884;2022-10-23T16:16:21;12.63;;;7.55;;
53044;SDS011;38930;52.766;6.884;2022-10-23T16:18:47;9.77;;;4.87;;
53044;SDS011;38930;52.766;6.884;2022-10-23T16:21:20;10.50;;;4.43;;
53044;SDS011;38930;52.766;6.884;2022-10-23T16:23:47;5.55;;;3.40;;
53044;SDS011;38930;52.766;6.884;2022-10-23T16:26:13;13.18;;;6.30;;
53044;SDS011;38930;52.766;6.884;2022-10-23T16:28:39;7.22;;;4.95;;
53044;SDS011;38930;52.766;6.884;2022-10-23T16:31:10;7.90;;;5.05;;
53044;SDS011;38930;52.766;6.884;2022-10-23T16:33:41;10.48;;;4.18;;
53044;SDS011;38930;52.766;6.884;2022-10-23T16:36:07;8.17;;;3.97;;
53044;SDS011;38930;52.766;6.884;2022-10-23T16:38:33;7.95;;;4.18;;
53044;SDS011;38930;52.766;6.884;2022-10-23T16:40:59;5.75;;;4.22;;
53044;SDS011;38930;52.766;6.884;2022-10-23T16:43:25;7.60;;;4.43;;
53044;SDS011;38930;52.766;6.884;2022-10-23T16:46:11;10.48;;;4.25;;
53044;SDS011;38930;52.766;6.884;2022-10-23T16:48:39;6.78;;;4.05;;
53044;SDS011;38930;52.766;6.884;2022-10-23T16:51:06;8.95;;;5.32;;
53044;SDS011;38930;52.766;6.884;2022-10-23T16:53:33;8.13;;;5.00;;